Time;durP1;ratioP1;P1;durP2;ratioP2;P2;SDS_P1;SDS_P2;PMS_P1;PMS_P2;Temp;Humidity;BMP_temperature;BMP_pressure;BME280_temperature;BME280_humidity;BME280_pressure;Samples;Min_cycle;Max_cycle;Signal;HPM_P1;HPM_P2
2023/09/13 00:02:29;;;;;;;9.02;8.10;;;;;;;19.07;93.18;153490.97;10440949;28;20041;-70
2023/09/13 00:07:32;;;;;;;10.25;7.78;;;;;;;18.61;95.27;153374.03;10440836;28;20128;-70
2023/09/13 00:12:34;;;;;;;9.57;8.70;;;;;;;18.38;97.41;153315.59;10458894;28;20086;-70
2023/09/13 00:17:36;;;;;;;9.90;8.95;;;;;;;18.59;97.63;153370.16;10459346;28;20036;-70
2023/09/13 00:22:38;;;;;;;9.55;8.38;;;;;;;18.78;95.91;153416.94;10458190;28;20124;-70
2023/09/13 00:27:39;;;;;;;9.25;8.18;;;;;;;18.47;97.14;153338.97;10457831;28;20037;-70
2023/09/13 00:32:41;;;;;;;8.57;7.95;;;;;;;18.54;97.35;153357.13;10458268;28;20044;-71
2023/09/13 00:37:43;;;;;;;9.27;8.48;;;;;;;18.45;98.14;153333.75;10439731;28;20132;-70
2023/09/13 00:42:45;;;;;;;12.25;9.20;;;;;;;18.61;96.57;153375.31;10455090;23;20140;-74
2023/09/13 00:47:48;;;;;;;8.23;7.60;;;;;;;18.41;97.85;153324.66;10458375;28;20033;-73
2023/09/13 00:52:50;;;;;;;9.05;8.15;;;;;;;18.36;99.10;153310.38;10459348;28;20410;-74
2023/09/13 00:57:53;;;;;;;9.40;8.63;;;;;;;18.61;98.86;153374.03;10458766;28;20086;-74
2023/09/13 01:02:55;;;;;;;9.90;9.10;;;;;;;18.78;97.99;153418.22;10439628;28;20045;-74
2023/09/13 01:07:57;;;;;;;10.52;9.38;;;;;;;18.69;97.15;153393.53;10457731;28;20044;-74
2023/09/13 01:12:59;;;;;;;11.45;10.45;;;;;;;18.97;94.55;153465.00;10457749;28;20072;-74
2023/09/13 01:18:27;;;;;;;11.15;10.25;;;;;;;19.51;90.19;153603.97;10457379;28;20052;-74
2023/09/13 01:23:51;;;;;;;9.98;9.02;;;;;;;20.44;81.79;153839.31;10438485;28;20044;-74
2023/09/13 01:28:55;;;;;;;9.43;8.52;;;;;;;20.50;81.63;153856.28;10457708;28;20041;-74
2023/09/13 01:33:57;;;;;;;8.32;7.72;;;;;;;20.39;81.77;153828.91;10438836;28;20099;-74
2023/09/13 01:39:00;;;;;;;8.93;8.13;;;;;;;20.58;79.71;153875.75;10414376;28;1224932;-74
2023/09/13 01:44:02;;;;;;;6.82;6.30;;;;;;;20.77;77.93;153923.91;10460607;28;20497;-74
2023/09/13 01:49:05;;;;;;;7.15;6.55;;;;;;;20.53;79.86;153864.06;10458972;28;20045;-74
2023/09/13 01:54:07;;;;;;;9.75;7.05;;;;;;;20.74;79.55;153917.38;10462383;28;20045;-73
2023/09/13 01:59:08;;;;;;;6.80;6.07;;;;;;;20.87;78.41;153949.91;10449126;28;20056;-73
2023/09/13 02:04:11;;;;;;;7.22;5.93;;;;;;;20.97;79.35;153974.59;10466956;28;20114;-74
2023/09/13 02:09:13;;;;;;;8.70;7.82;;;;;;;20.45;89.89;153843.19;10448234;28;20045;-74
2023/09/13 02:14:15;;;;;;;7.13;6.43;;;;;;;20.28;90.67;153800.31;10448554;28;20528;-74
2023/09/13 02:19:17;;;;;;;7.18;6.35;;;;;;;20.15;94.43;153767.81;10447025;28;20052;-74
2023/09/13 02:24:19;;;;;;;7.55;6.95;;;;;;;19.88;97.55;153697.63;10465111;28;20041;-74
2023/09/13 02:29:20;;;;;;;12.55;7.68;;;;;;;20.46;97.21;153844.53;10447565;28;20091;-75
2023/09/13 02:34:23;;;;;;;8.25;7.45;;;;;;;20.00;99.04;153727.50;10447830;28;20053;-75
2023/09/13 02:39:38;;;;;;;8.50;7.55;;;;;;;19.98;100.00;153723.63;10430727;28;20053;-74
2023/09/13 02:44:40;;;;;;;8.90;7.17;;;;;;;19.71;100.00;153654.75;10447570;28;20087;-74
2023/09/13 02:49:42;;;;;;;8.45;7.75;;;;;;;19.38;100.00;153570.19;10447631;28;20140;-74
2023/09/13 02:54:44;;;;;;;7.28;6.68;;;;;;;19.65;100.00;153639.13;10465726;28;20140;-74
2023/09/13 02:59:46;;;;;;;6.30;5.85;;;;;;;19.88;98.84;153697.63;10464871;28;20041;-74
2023/09/13 03:04:50;;;;;;;7.20;6.50;;;;;;;19.81;99.06;153679.44;10465199;28;20123;-74
2023/09/13 03:09:54;;;;;;;12.93;6.28;;;;;;;19.60;100.00;153626.06;10446459;28;20072;-74
2023/09/13 03:14:57;;;;;;;6.45;5.95;;;;;;;19.49;100.00;153597.50;10446809;28;20056;-74
2023/09/13 03:19:59;;;;;;;7.47;6.78;;;;;;;19.50;100.00;153600.09;10447200;28;20037;-73
2023/09/13 03:25:05;;;;;;;10.13;6.82;;;;;;;19.21;100.00;153527.31;10430604;28;20041;-75
2023/09/13 03:30:07;;;;;;;6.10;5.60;;;;;;;19.20;100.00;153524.72;10445102;28;20063;-74
2023/09/13 03:35:10;;;;;;;10.05;7.40;;;;;;;19.09;100.00;153497.47;10444779;28;20048;-74
2023/09/13 03:40:12;;;;;;;6.93;6.32;;;;;;;18.90;100.00;153449.41;10445068;28;20099;-73
2023/09/13 03:45:15;;;;;;;5.63;5.22;;;;;;;18.92;100.00;153453.31;10463428;28;20384;-75
2023/09/13 03:50:17;;;;;;;6.65;6.05;;;;;;;18.86;100.00;153437.72;10443798;28;20044;-74
2023/09/13 03:55:18;;;;;;;7.95;7.15;;;;;;;18.65;100.00;153385.72;10444736;28;20072;-74
2023/09/13 04:00:20;;;;;;;7.32;6.72;;;;;;;18.68;100.00;153392.19;10444598;28;20041;-74
2023/09/13 04:05:23;;;;;;;8.38;7.68;;;;;;;18.85;100.00;153435.09;10443909;28;20140;-74
2023/09/13 04:10:25;;;;;;;8.93;8.13;;;;;;;19.19;100.00;153522.13;10462409;28;20455;-75
2023/09/13 04:15:27;;;;;;;8.65;7.85;;;;;;;18.87;100.00;153440.31;10463031;28;20045;-75
2023/09/13 04:20:29;;;;;;;9.13;7.95;;;;;;;18.54;100.00;153357.13;10442873;28;20554;-75
2023/09/13 04:25:31;;;;;;;9.23;7.57;;;;;;;18.69;100.00;153394.88;10443562;28;20045;-75
2023/09/13 04:30:33;;;;;;;7.63;6.22;;;;;;;18.50;100.00;153346.72;10461748;28;20040;-75
2023/09/13 04:35:35;;;;;;;8.30;7.70;;;;;;;18.73;100.00;153405.25;10442435;28;20041;-74
2023/09/13 04:40:42;;;;;;;8.07;7.38;;;;;;;18.70;100.00;153397.44;10442734;28;20041;-74
2023/09/13 04:45:44;;;;;;;7.85;7.22;;;;;;;18.62;100.00;153377.91;10443622;28;20071;-75
2023/09/13 04:50:46;;;;;;;7.22;6.63;;;;;;;18.32;100.00;153300.00;10460737;28;20041;-75
2023/09/13 04:55:48;;;;;;;6.93;6.32;;;;;;;18.25;100.00;153281.84;10442653;28;20460;-75
2023/09/13 05:00:52;;;;;;;8.57;7.82;;;;;;;18.47;100.00;153338.97;10442536;28;20052;-74
2023/09/13 05:05:57;;;;;;;10.50;8.10;;;;;;;18.60;100.00;153371.44;10460202;28;20474;-74
2023/09/13 05:10:59;;;;;;;8.35;7.53;;;;;;;18.41;100.00;153323.34;10460310;28;20509;-74
2023/09/13 05:16:07;;;;;;;7.97;7.28;;;;;;;18.38;100.00;153316.91;10460095;28;20537;-75
2023/09/13 05:21:27;;;;;;;7.32;6.38;;;;;;;18.60;100.00;153372.72;10442347;28;20098;-75
2023/09/13 05:26:29;;;;;;;9.55;7.43;;;;;;;18.54;100.00;153357.13;10459440;28;20522;-74
2023/09/13 05:31:31;;;;;;;7.75;7.15;;;;;;;18.67;100.00;153390.88;10460628;28;20047;-76
2023/09/13 05:36:33;;;;;;;9.00;7.90;;;;;;;18.86;100.00;153437.72;10441035;28;20061;-75
2023/09/13 05:41:37;;;;;;;10.05;8.63;;;;;;;19.21;100.00;153527.31;10458916;28;20073;-74
2023/09/13 05:46:39;;;;;;;8.40;7.68;;;;;;;19.20;100.00;153524.72;10461843;28;20103;-75
2023/09/13 05:51:41;;;;;;;7.95;6.53;;;;;;;19.39;100.00;153574.13;10459825;28;20050;-75
2023/09/13 05:56:43;;;;;;;8.52;7.68;;;;;;;19.31;100.00;153552.03;10459427;28;20045;-74
2023/09/13 06:01:45;;;;;;;7.65;6.75;;;;;;;19.29;100.00;153546.81;10424316;28;20099;-75
2023/09/13 06:06:50;;;;;;;7.53;6.85;;;;;;;19.38;100.00;153571.50;10440448;28;20052;-73
2023/09/13 06:11:53;;;;;;;8.80;7.20;;;;;;;19.55;100.00;153614.38;10441664;28;20061;-75
2023/09/13 06:16:55;;;;;;;8.55;7.82;;;;;;;19.84;100.00;153687.22;10441461;28;20094;-74
2023/09/13 06:21:57;;;;;;;8.10;7.30;;;;;;;20.26;99.91;153793.81;10458270;28;20045;-74
2023/09/13 06:26:59;;;;;;;7.40;6.80;;;;;;;20.37;97.97;153823.72;10458499;28;20033;-75
2023/09/13 06:32:02;;;;;;;8.43;7.63;;;;;;;20.33;96.91;153813.31;10458642;28;20067;-75
2023/09/13 06:37:07;;;;;;;9.85;8.27;;;;;;;20.39;96.93;153827.59;10459646;28;20045;-74
2023/09/13 06:42:09;;;;;;;8.75;8.05;;;;;;;20.83;93.38;153940.78;10476345;22;20386;-74
2023/09/13 06:47:30;;;;;;;8.05;7.45;;;;;;;20.72;94.45;153912.19;10462374;28;20099;-72
2023/09/13 06:52:33;;;;;;;8.48;7.88;;;;;;;20.91;92.82;153960.31;10461664;28;20041;-72
2023/09/13 06:57:53;;;;;;;10.20;8.38;;;;;;;21.05;91.67;153995.41;10461276;28;20546;-72
2023/09/13 07:03:02;;;;;;;9.57;8.77;;;;;;;21.07;93.10;154001.94;10443698;28;20135;-72
2023/09/13 07:08:09;;;;;;;9.77;8.50;;;;;;;21.29;89.35;154056.53;10461628;28;20044;-72
2023/09/13 07:13:11;;;;;;;8.30;7.55;;;;;;;21.78;86.83;154181.50;10460986;28;20049;-72
2023/09/13 07:18:12;;;;;;;8.48;7.78;;;;;;;22.01;84.67;154240.09;10443102;28;20044;-72
2023/09/13 07:23:14;;;;;;;9.63;8.55;;;;;;;22.06;84.29;154254.41;10460600;28;20095;-72
2023/09/13 07:28:16;;;;;;;8.82;7.90;;;;;;;22.00;85.73;154238.81;10442630;28;20418;-71
2023/09/13 07:33:18;;;;;;;9.57;8.57;;;;;;;22.06;84.63;154254.41;10460234;28;20041;-73
2023/09/13 07:38:19;;;;;;;8.40;7.60;;;;;;;22.25;82.88;154301.31;10441688;28;20144;-72
2023/09/13 07:43:21;;;;;;;8.35;7.65;;;;;;;22.45;82.62;154353.41;10460089;28;20053;-73
2023/09/13 07:48:23;;;;;;;9.85;8.05;;;;;;;22.59;80.68;154388.53;10460623;28;20037;-73
2023/09/13 07:53:25;;;;;;;8.30;7.57;;;;;;;22.62;77.74;154396.31;10458490;28;20091;-73
2023/09/13 07:58:27;;;;;;;7.60;6.90;;;;;;;22.76;73.30;154431.53;10442186;28;20045;-73
2023/09/13 08:03:29;;;;;;;6.80;6.20;;;;;;;22.75;71.87;154430.19;10460606;28;20084;-74
2023/09/13 08:08:33;;;;;;;6.82;6.22;;;;;;;22.66;71.49;154408.03;10441256;28;20044;-73
2023/09/13 08:13:35;;;;;;;6.47;5.88;;;;;;;22.85;70.13;154454.97;10441371;28;20047;-73
2023/09/13 08:18:37;;;;;;;6.97;6.28;;;;;;;22.72;71.68;154421.09;10459763;28;20041;-73
2023/09/13 08:23:39;;;;;;;7.20;6.60;;;;;;;22.59;71.75;154389.84;10440523;28;20049;-72
2023/09/13 08:28:40;;;;;;;10.13;6.38;;;;;;;22.60;72.66;154392.44;10458045;28;20037;-72
2023/09/13 08:33:43;;;;;;;7.03;6.40;;;;;;;22.90;71.21;154468.03;10458272;28;20067;-72
2023/09/13 08:38:44;;;;;;;9.15;6.15;;;;;;;23.03;69.46;154501.88;10458703;28;20044;-72
2023/09/13 08:43:48;;;;;;;4.93;4.00;;;;;;;23.31;64.55;154573.50;10458975;28;20128;-73
2023/09/13 08:48:51;;;;;;;4.50;3.38;;;;;;;23.31;63.45;154572.22;10457865;28;20063;-72
2023/09/13 08:53:53;;;;;;;3.47;2.88;;;;;;;23.47;62.81;154613.91;10457845;28;20107;-74
2023/09/13 08:58:55;;;;;;;3.45;2.38;;;;;;;23.46;63.03;154611.25;10457392;28;20037;-73
2023/09/13 09:03:57;;;;;;;4.70;2.70;;;;;;;23.35;62.91;154582.63;10456956;28;20556;-73
2023/09/13 09:09:00;;;;;;;3.10;2.80;;;;;;;23.62;61.28;154651.66;10457432;28;20041;-73
2023/09/13 09:14:03;;;;;;;3.35;3.05;;;;;;;23.72;62.12;154677.75;10458103;28;20669;-73
2023/09/13 09:19:06;;;;;;;4.60;3.00;;;;;;;23.96;60.56;154739.03;10456545;28;20048;-73
2023/09/13 09:24:07;;;;;;;3.13;2.90;;;;;;;24.29;59.75;154822.44;10458561;28;20494;-74
2023/09/13 09:29:14;;;;;;;3.70;3.17;;;;;;;24.27;59.57;154817.22;10456326;28;20033;-74
2023/09/13 09:34:16;;;;;;;2.97;2.40;;;;;;;24.57;59.79;154895.50;10458096;28;20441;-75
2023/09/13 09:39:17;;;;;;;3.75;3.10;;;;;;;24.10;61.08;154774.22;10455649;28;20061;-73
2023/09/13 09:44:27;;;;;;;4.82;3.28;;;;;;;24.56;59.73;154891.56;10456288;28;20498;-73
2023/09/13 09:49:30;;;;;;;3.72;3.40;;;;;;;24.76;59.73;154942.44;10457099;28;20037;-73
2023/09/13 09:54:31;;;;;;;3.17;2.88;;;;;;;25.26;57.80;155070.25;10457340;28;20208;-73
2023/09/13 09:59:37;;;;;;;2.92;2.60;;;;;;;25.46;55.14;155121.13;10458642;28;20123;-73
2023/09/13 10:04:48;;;;;;;3.17;2.95;;;;;;;25.22;57.85;155059.81;10457304;28;20047;-74
2023/09/13 10:09:50;;;;;;;3.30;2.95;;;;;;;24.69;59.33;154925.44;10457094;28;20073;-73
2023/09/13 10:14:54;;;;;;;3.72;2.92;;;;;;;24.88;58.97;154975.03;10461029;28;20136;-73
2023/09/13 10:19:59;;;;;;;3.67;3.37;;;;;;;25.12;59.25;155036.34;10446669;28;20044;-73
2023/09/13 10:25:05;;;;;;;3.28;2.97;;;;;;;25.53;58.39;155140.66;10464156;28;20045;-73
2023/09/13 10:30:10;;;;;;;;;;;;;;;25.74;56.75;155192.88;10464489;28;20075;-75
2023/09/13 10:35:13;;;;;;;3.07;2.20;;;;;;;26.06;55.14;155276.41;10464153;28;19986;-74
2023/09/13 10:40:33;;;;;;;3.92;2.72;;;;;;;25.00;58.81;155004.97;10463843;28;20044;-74
2023/09/13 10:45:36;;;;;;;4.32;2.72;;;;;;;24.79;60.87;154951.56;10444538;28;20115;-72
2023/09/13 10:50:38;;;;;;;2.65;2.45;;;;;;;25.17;58.48;155049.38;10463421;28;20045;-71
2023/09/13 10:55:40;;;;;;;4.38;2.92;;;;;;;25.03;58.76;155012.81;10462506;28;20051;-72
2023/09/13 11:00:43;;;;;;;3.03;2.17;;;;;;;25.37;57.63;155100.25;10462181;28;20494;-72
2023/09/13 11:05:49;;;;;;;3.17;2.40;;;;;;;25.55;58.33;155144.63;10461746;28;20049;-72
2023/09/13 11:10:52;;;;;;;2.83;2.17;;;;;;;25.85;58.18;155222.94;10462447;28;20064;-72
2023/09/13 11:15:56;;;;;;;2.75;2.55;;;;;;;25.26;57.09;155070.25;10461998;28;20041;-72
2023/09/13 11:20:57;;;;;;;2.47;2.28;;;;;;;25.10;58.21;155031.16;10461405;28;20037;-73
2023/09/13 11:26:04;;;;;;;2.65;1.90;;;;;;;25.31;57.74;155083.28;10461246;28;20045;-72
2023/09/13 11:31:17;;;;;;;2.78;2.08;;;;;;;24.90;57.61;154978.91;10444562;28;20414;-72
2023/09/13 11:36:20;;;;;;;2.33;2.13;;;;;;;24.89;56.87;154976.31;10460638;28;20037;-73
2023/09/13 11:41:22;;;;;;;2.35;1.30;;;;;;;24.48;57.30;154870.69;10461693;28;20092;-72
2023/09/13 11:46:27;;;;;;;1.58;1.48;;;;;;;24.30;58.90;154826.31;10461565;28;20441;-72
2023/09/13 11:51:33;;;;;;;1.50;1.10;;;;;;;24.25;59.85;154813.28;10460327;28;20558;-72
2023/09/13 11:56:39;;;;;;;1.30;1.00;;;;;;;24.32;59.66;154830.25;10459672;28;20043;-72
2023/09/13 12:01:48;;;;;;;1.25;0.80;;;;;;;23.98;58.83;154744.22;10464225;28;20223;-73
2023/09/13 12:06:56;;;;;;;0.60;0.60;;;;;;;23.77;58.86;154689.50;10466672;28;20036;-74
2023/09/13 12:12:01;;;;;;;0.67;0.67;;;;;;;23.63;59.43;154655.56;10462823;28;20044;-74
2023/09/13 12:17:10;;;;;;;0.95;0.70;;;;;;;23.65;61.24;154659.56;10472171;28;20045;-74
2023/09/13 12:22:18;;;;;;;0.88;0.88;;;;;;;23.56;61.02;154637.34;10500461;28;20496;-73
2023/09/13 12:27:22;;;;;;;1.17;0.85;;;;;;;23.46;61.63;154611.25;10501780;28;20040;-73
2023/09/13 12:32:24;;;;;;;0.80;0.77;;;;;;;23.41;62.14;154598.25;10499698;28;20037;-73
2023/09/13 12:37:26;;;;;;;1.58;1.00;;;;;;;23.33;63.09;154578.75;10499649;28;20040;-74
2023/09/13 12:42:29;;;;;;;2.13;0.85;;;;;;;23.64;60.58;154658.25;10494349;22;20449;-71
2023/09/13 12:47:32;;;;;;;3.83;0.70;;;;;;;23.72;60.27;154677.75;10443103;28;20148;-72
2023/09/13 12:52:34;;;;;;;1.60;1.00;;;;;;;23.84;61.70;154707.75;10443260;28;20045;-71
2023/09/13 12:57:36;;;;;;;1.17;0.90;;;;;;;24.17;59.55;154793.78;10461275;28;20103;-72
2023/09/13 13:02:39;;;;;;;0.95;0.85;;;;;;;24.23;59.95;154806.81;10443698;28;20401;-72
2023/09/13 13:07:41;;;;;;;1.33;1.23;;;;;;;24.63;59.09;154911.13;10425353;28;20106;-72
2023/09/13 13:13:01;;;;;;;0.80;0.80;;;;;;;24.61;57.81;154904.59;10459371;28;20045;-71
2023/09/13 13:18:09;;;;;;;1.23;0.93;;;;;;;24.44;59.09;154861.59;10460984;28;20040;-72
2023/09/13 13:23:11;;;;;;;1.23;0.90;;;;;;;24.50;57.33;154875.94;10446559;28;20053;-73
2023/09/13 13:28:14;;;;;;;1.77;1.08;;;;;;;24.49;57.52;154874.63;10457448;28;20451;-72
2023/09/13 13:33:16;;;;;;;0.90;0.90;;;;;;;24.55;57.62;154890.25;10490846;28;20093;-71
2023/09/13 13:38:18;;;;;;;1.55;1.15;;;;;;;24.35;57.82;154838.09;10497158;28;20037;-72
2023/09/13 13:43:20;;;;;;;1.65;0.80;;;;;;;24.39;58.83;154848.53;10442357;28;20102;-72
2023/09/13 13:48:22;;;;;;;1.83;0.80;;;;;;;24.31;58.36;154828.97;10442249;28;20499;-72
2023/09/13 13:53:27;;;;;;;0.80;0.80;;;;;;;24.38;58.91;154845.94;10467223;28;20085;-72
2023/09/13 13:58:29;;;;;;;1.97;1.00;;;;;;;24.07;59.11;154767.69;10488884;28;20096;-71
2023/09/13 14:03:31;;;;;;;1.85;0.80;;;;;;;23.90;59.78;154724.66;10448580;28;20084;-72
2023/09/13 14:08:33;;;;;;;4.10;0.80;;;;;;;24.00;58.67;154748.16;10448404;28;20121;-72
2023/09/13 14:13:35;;;;;;;1.35;0.85;;;;;;;23.90;59.87;154723.38;10463982;28;20128;-73
2023/09/13 14:18:36;;;;;;;1.30;0.93;;;;;;;23.88;61.05;154718.19;10465209;28;20076;-72
2023/09/13 14:23:38;;;;;;;1.10;1.00;;;;;;;24.02;60.26;154754.66;10465301;28;20082;-72
2023/09/13 14:28:40;;;;;;;1.15;1.08;;;;;;;23.71;60.17;154675.16;10447250;28;20087;-71
2023/09/13 14:33:42;;;;;;;1.25;1.00;;;;;;;23.42;60.72;154602.19;10465370;28;20444;-72
2023/09/13 14:38:45;;;;;;;1.38;1.00;;;;;;;23.38;61.71;154590.47;10466523;28;20065;-72
2023/09/13 14:43:46;;;;;;;1.20;1.10;;;;;;;23.34;62.43;154580.03;10448590;28;20063;-74
2023/09/13 14:48:52;;;;;;;1.58;1.00;;;;;;;22.96;66.99;154482.34;10463643;28;20037;-73
2023/09/13 14:53:54;;;;;;;1.98;0.80;;;;;;;22.34;70.76;154326.03;10465045;28;20041;-72
2023/09/13 14:58:56;;;;;;;0.77;0.60;;;;;;;22.00;72.90;154238.81;10463788;28;20489;-72
2023/09/13 15:03:58;;;;;;;0.90;0.73;;;;;;;22.14;72.58;154275.28;10463880;28;20045;-71
2023/09/13 15:09:00;;;;;;;1.00;0.90;;;;;;;21.70;75.44;154162.00;10464036;28;20526;-70
2023/09/13 15:14:03;;;;;;;4.00;1.05;;;;;;;21.62;76.76;154141.19;10443811;28;20047;-73
2023/09/13 15:19:05;;;;;;;0.80;0.70;;;;;;;21.46;78.44;154099.53;10443613;28;20486;-72
2023/09/13 15:24:07;;;;;;;0.77;0.77;;;;;;;21.27;79.70;154051.34;10461163;28;20465;-72
2023/09/13 15:29:09;;;;;;;1.17;0.77;;;;;;;21.21;80.45;154035.75;10446401;28;20041;-72
2023/09/13 15:34:11;;;;;;;0.80;0.80;;;;;;;20.98;81.88;153978.47;10449156;28;20115;-73
2023/09/13 15:39:13;;;;;;;1.08;0.90;;;;;;;21.08;81.85;154003.25;10444038;28;20048;-73
2023/09/13 15:44:15;;;;;;;1.88;1.10;;;;;;;21.08;82.59;154003.25;10443627;28;20110;-72
2023/09/13 15:49:23;;;;;;;1.05;0.98;;;;;;;21.33;78.97;154068.28;10461766;28;20106;-73
2023/09/13 15:54:25;;;;;;;1.00;1.00;;;;;;;21.44;76.76;154094.34;10466322;28;20100;-72
2023/09/13 15:59:28;;;;;;;0.80;0.80;;;;;;;21.39;76.90;154083.94;10443597;28;20136;-73
2023/09/13 16:04:29;;;;;;;1.17;0.70;;;;;;;21.46;76.53;154100.81;10443907;28;20045;-74
2023/09/13 16:09:31;;;;;;;1.27;0.55;;;;;;;21.77;73.42;154180.19;10461339;28;20052;-74
2023/09/13 16:14:34;;;;;;;1.20;0.82;;;;;;;21.66;76.11;154151.59;10462943;28;20041;-73
2023/09/13 16:19:36;;;;;;;0.68;0.68;;;;;;;21.49;76.91;154108.66;10461594;28;20429;-74
2023/09/13 16:24:38;;;;;;;1.73;1.00;;;;;;;21.56;76.29;154125.53;10461319;28;20037;-73
2023/09/13 16:29:40;;;;;;;1.45;1.00;;;;;;;21.61;76.39;154138.59;10461548;28;20045;-73
2023/09/13 16:34:42;;;;;;;0.80;0.80;;;;;;;21.51;77.31;154113.81;10443094;28;20540;-73
2023/09/13 16:39:44;;;;;;;1.23;0.77;;;;;;;21.16;79.34;154024.00;10461802;28;20033;-73
2023/09/13 16:44:46;;;;;;;1.35;1.25;;;;;;;21.08;79.89;154004.53;10460491;28;20054;-73
2023/09/13 16:49:48;;;;;;;1.45;1.35;;;;;;;20.98;81.32;153977.19;10460485;28;20406;-74
2023/09/13 16:54:53;;;;;;;0.80;0.80;;;;;;;20.97;81.33;153974.59;10462002;28;20072;-73
2023/09/13 16:59:55;;;;;;;1.45;0.90;;;;;;;20.96;81.71;153972.00;10449209;28;20033;-73
2023/09/13 17:04:57;;;;;;;1.85;1.20;;;;;;;20.82;82.61;153938.19;10444107;28;20041;-73
2023/09/13 17:09:58;;;;;;;1.00;0.90;;;;;;;20.74;83.27;153916.09;10444742;28;20116;-73
2023/09/13 17:15:00;;;;;;;1.10;1.00;;;;;;;20.71;83.13;153908.28;10460017;28;20048;-74
2023/09/13 17:20:04;;;;;;;0.82;0.82;;;;;;;20.68;83.05;153901.78;10441579;28;20452;-74
2023/09/13 17:25:07;;;;;;;2.65;1.55;;;;;;;20.55;83.00;153869.28;10459991;28;20044;-74
2023/09/13 17:30:09;;;;;;;1.35;1.20;;;;;;;20.72;84.62;153910.84;10459642;28;20045;-74
2023/09/13 17:35:11;;;;;;;2.50;1.00;;;;;;;20.83;84.26;153939.50;10441440;28;20048;-74
2023/09/13 17:40:13;;;;;;;1.42;1.10;;;;;;;20.52;85.38;153861.47;10459466;28;20049;-74
2023/09/13 17:45:15;;;;;;;2.55;1.70;;;;;;;20.52;86.26;153860.16;10462357;28;20040;-74
2023/09/13 17:50:17;;;;;;;1.50;1.40;;;;;;;20.31;87.56;153808.09;10441665;28;20067;-73
2023/09/13 17:55:20;;;;;;;2.30;1.60;;;;;;;20.13;88.09;153762.59;10426717;28;20045;-73
2023/09/13 18:00:22;;;;;;;1.70;1.60;;;;;;;20.15;88.43;153767.81;10442439;28;20047;-73
2023/09/13 18:05:28;;;;;;;2.35;1.88;;;;;;;20.01;89.37;153731.44;10460650;28;20044;-74
2023/09/13 18:10:30;;;;;;;1.65;1.55;;;;;;;20.16;89.39;153769.13;10459091;28;20483;-74
2023/09/13 18:15:37;;;;;;;2.83;1.88;;;;;;;20.01;90.11;153730.09;10458658;28;20055;-73
2023/09/13 18:20:39;;;;;;;2.22;1.70;;;;;;;20.10;90.01;153753.53;10440183;28;20120;-73
2023/09/13 18:25:41;;;;;;;2.35;2.15;;;;;;;19.98;91.42;153723.63;10424875;28;20075;-73
2023/09/13 18:30:43;;;;;;;2.22;2.00;;;;;;;19.80;92.35;153676.84;10458639;28;20454;-73
2023/09/13 18:35:44;;;;;;;2.42;2.22;;;;;;;19.73;91.47;153658.63;10460456;28;20037;-74
2023/09/13 18:40:46;;;;;;;2.60;2.20;;;;;;;19.44;94.00;153585.81;10477586;22;20052;-69
2023/09/13 18:46:02;;;;;;;4.05;2.65;;;;;;;19.60;94.70;153626.06;10403123;28;20049;-70
2023/09/13 18:51:04;;;;;;;3.60;2.42;;;;;;;19.81;93.18;153680.72;10420964;28;20045;-70
2023/09/13 18:56:06;;;;;;;1.70;1.60;;;;;;;19.51;94.10;153602.69;10421574;28;20065;-70
2023/09/13 19:01:08;;;;;;;1.80;1.70;;;;;;;19.37;96.44;153567.63;10421282;28;20083;-70
2023/09/13 19:06:11;;;;;;;1.90;1.80;;;;;;;19.33;97.62;153558.50;10421077;28;20101;-69
2023/09/13 19:11:13;;;;;;;2.30;2.10;;;;;;;19.44;97.17;153585.81;10420293;28;20068;-70
2023/09/13 19:16:15;;;;;;;3.75;2.70;;;;;;;19.46;97.77;153591.00;10420309;28;20498;-70
2023/09/13 19:21:17;;;;;;;2.92;2.67;;;;;;;19.61;95.73;153630.06;10420447;28;20120;-70
2023/09/13 19:26:19;;;;;;;2.53;2.30;;;;;;;19.81;94.01;153680.72;10419975;28;20125;-70
2023/09/13 19:31:25;;;;;;;3.70;2.22;;;;;;;19.93;94.81;153709.34;10420952;28;20048;-71
2023/09/13 19:36:27;;;;;;;2.17;2.08;;;;;;;19.91;96.76;153705.41;10419325;28;20470;-70
2023/09/13 19:41:28;;;;;;;2.70;2.50;;;;;;;19.66;100.00;153641.75;10418886;28;20041;-70
2023/09/13 19:46:30;;;;;;;2.72;2.53;;;;;;;19.62;100.00;153631.34;10418062;28;20041;-69
2023/09/13 19:51:32;;;;;;;2.88;2.63;;;;;;;19.31;100.00;153553.34;10418759;28;20049;-69
2023/09/13 19:56:35;;;;;;;3.70;3.40;;;;;;;19.23;100.00;153532.53;10419093;28;20466;-68
2023/09/13 20:01:37;;;;;;;4.18;3.78;;;;;;;19.12;100.00;153503.94;10418236;28;20176;-69
2023/09/13 20:06:39;;;;;;;4.80;4.03;;;;;;;18.88;100.00;153442.91;10417864;28;20053;-69
2023/09/13 20:11:43;;;;;;;4.72;4.32;;;;;;;18.83;100.00;153429.91;10417843;28;20044;-69
2023/09/13 20:16:44;;;;;;;4.00;3.60;;;;;;;18.89;100.00;153446.78;10417779;28;20041;-69
2023/09/13 20:21:46;;;;;;;4.00;3.80;;;;;;;19.07;100.00;153492.25;10417288;28;20080;-69
2023/09/13 20:26:48;;;;;;;4.50;4.20;;;;;;;18.71;100.00;153400.03;10418804;28;20049;-69
2023/09/13 20:31:50;;;;;;;3.88;3.55;;;;;;;18.69;100.00;153394.88;10417169;28;20068;-69
2023/09/13 20:36:52;;;;;;;4.25;3.95;;;;;;;18.70;100.00;153397.44;10416947;28;20047;-69
2023/09/13 20:41:54;;;;;;;4.07;3.78;;;;;;;18.73;100.00;153403.97;10417467;28;20124;-69
2023/09/13 20:46:56;;;;;;;3.65;3.45;;;;;;;18.59;100.00;153368.81;10417521;28;20041;-69
2023/09/13 20:51:59;;;;;;;4.45;4.07;;;;;;;18.57;100.00;153363.63;10416382;28;20112;-70
2023/09/13 20:57:02;;;;;;;4.97;4.15;;;;;;;18.59;100.00;153370.16;10415745;28;20045;-69
2023/09/13 21:02:05;;;;;;;3.55;3.25;;;;;;;18.67;100.00;153390.88;10416400;28;20044;-69
2023/09/13 21:07:07;;;;;;;4.85;3.78;;;;;;;18.72;100.00;153402.63;10415393;28;20042;-69
2023/09/13 21:12:10;;;;;;;4.05;3.75;;;;;;;18.70;100.00;153396.16;10415745;28;20049;-69
2023/09/13 21:17:12;;;;;;;3.95;3.65;;;;;;;18.67;100.00;153390.88;10415362;28;20141;-69
2023/09/13 21:22:13;;;;;;;4.07;3.78;;;;;;;18.55;100.00;153359.75;10415751;28;20037;-69
2023/09/13 21:27:15;;;;;;;3.22;3.03;;;;;;;18.51;100.00;153349.38;10414886;28;20044;-69
2023/09/13 21:32:17;;;;;;;3.97;3.63;;;;;;;18.55;100.00;153359.75;10416274;28;20060;-69
2023/09/13 21:37:19;;;;;;;3.78;3.47;;;;;;;18.42;100.00;153326.00;10415720;28;20049;-69
2023/09/13 21:42:21;;;;;;;3.92;3.63;;;;;;;18.54;100.00;153355.81;10415223;28;20037;-69
2023/09/13 21:47:24;;;;;;;3.63;3.38;;;;;;;18.63;100.00;153380.50;10415494;28;20133;-69
2023/09/13 21:52:26;;;;;;;3.58;3.38;;;;;;;18.37;100.00;153312.97;10415294;28;20488;-69
2023/09/13 21:57:28;;;;;;;3.47;3.25;;;;;;;18.12;100.00;153250.69;10415057;28;20069;-69
2023/09/13 22:02:30;;;;;;;3.17;2.92;;;;;;;18.24;100.00;153280.56;10414653;28;20087;-68
2023/09/13 22:07:31;;;;;;;3.08;2.88;;;;;;;18.11;100.00;153248.09;10414653;28;20121;-68
2023/09/13 22:12:33;;;;;;;3.30;3.00;;;;;;;17.99;100.00;153216.91;10420669;28;20048;-69
2023/09/13 22:17:35;;;;;;;2.60;2.38;;;;;;;17.95;100.00;153205.25;10422407;28;20045;-70
2023/09/13 22:22:37;;;;;;;2.70;2.50;;;;;;;17.75;100.00;153154.59;10422483;28;20505;-70
2023/09/13 22:27:39;;;;;;;2.58;2.38;;;;;;;17.83;100.00;153175.38;10421993;28;20103;-70
2023/09/13 22:32:41;;;;;;;2.47;2.30;;;;;;;17.76;100.00;153157.22;10422242;28;20052;-70
2023/09/13 22:37:43;;;;;;;2.65;2.45;;;;;;;17.62;100.00;153122.16;10421199;28;20077;-70
2023/09/13 22:42:44;;;;;;;2.20;2.10;;;;;;;17.59;100.00;153114.34;10421052;28;20061;-70
2023/09/13 22:47:46;;;;;;;2.35;2.22;;;;;;;17.66;100.00;153132.47;10421828;28;20076;-70
2023/09/13 22:52:48;;;;;;;2.45;2.25;;;;;;;17.49;100.00;153089.69;10421955;28;20061;-70
2023/09/13 22:57:50;;;;;;;2.45;2.30;;;;;;;17.42;100.00;153070.22;10422580;28;20155;-70
2023/09/13 23:02:52;;;;;;;2.40;2.20;;;;;;;17.66;100.00;153132.47;10422033;28;20091;-69
2023/09/13 23:07:55;;;;;;;2.92;2.72;;;;;;;17.57;100.00;153109.13;10421826;28;20095;-69